Çanakkale Airport

LTBH · 恰纳卡莱省, 土耳其

罗盘
风向 的 风向 170° Çanakkale Airport 4/22
风: 7 kt, 3 beaufort

4 kt

5 kt
改变
0 ft 1.000 2.000 3.000 4.000 5.000
CAVOK
METAR LTBH 231850Z 17007KT CAVOK 15/10 Q1018

METAR Çanakkale Airport - LTBH/CKZ

Çanakkale Airport是,土耳其中的中型机场。 该机场位于纬度40,13535和经度26,42440。 该机场有一条跑道: 4/22. 本场的ICAO机场代码为LTBH。 该机场的IATA代码为CKZ。 机场在Istanbul FIR中。

该航空气象观测是针对Çanakkale Airport在2024年2月23日 21:50, 当地时间进行的。

机场观察

风向为170°,速度为7 kt。

天气为CAVOK。这意味着在5.000 ft或MSA(最低安全高度)以下(以较高者为准)以下没有云。这也意味着没有观测到积雨云或高耸的积云,可见度为10 km 或者更多或更高。此外,不会有雾,降雨或其他重要天气。

温度和风寒是15 °C。 露点为10 °C,相对湿度为72%。 海平面上的气压为1018 hPa (QNH)。

白天

今天,太阳从07:57升起,在18:58降落。 这适用于Çanakkale Airport,世界夏令时可能有所不同。 当地时间与世界标准时间之间的时差为+3 小时。 当前,没有夏令时有效。

公司介绍

在这个机场,你可以找到飞行学校。 本场上唯一已知的公司是Uludağ Uçuş Okulları ve Genel Havacılık A.Ş。

体会

到Vliegles.nl去找飞行课程,跳伞和其他飞行体验。 浏览页面,了解Çanakkale Airport附近所有可用的活动。 你也可以使用搜索功能来寻找你所在地附近的特定飞行课程、跳伞或其他飞行体验。

跑道

Id 标题 侧风 逆风 侧风 %
4/22 041°-221° 5 kt 4 kt 78 %

逆风成分最大的方向会被突出显示,并用于横风计算。 这并不一定意味着这个方向在使用。

温度 & 天气

温度 15 °C
露点 10 °C
相对湿度 72%
Kp-index 0 (0-9)

白天

日出
07:57 (9:06)
中午
13:27
日落
18:58

小工具

你想在你的网站上有一个关于Çanakkale Airport的当前航空天气(METAR)的小部件吗?

显示HTML代码
?>